createdAt,value
2018-07-17T00:00:06.591Z,85.57
2018-07-17T00:01:06.713Z,85.85
2018-07-17T00:02:06.810Z,85.57
2018-07-17T00:03:06.909Z,85.28
2018-07-17T00:04:07.007Z,84.99
2018-07-17T00:05:07.112Z,85.08
2018-07-17T00:06:07.200Z,85.18
2018-07-17T00:07:07.304Z,85.57
2018-07-17T00:08:07.421Z,85.85
2018-07-17T00:09:07.519Z,86.10
2018-07-17T00:10:07.623Z,86.05
2018-07-17T00:11:07.720Z,85.75
2018-07-17T00:12:07.819Z,85.75
2018-07-17T00:13:07.921Z,85.95
2018-07-17T00:14:08.017Z,85.81
2018-07-17T00:15:08.136Z,85.95
2018-07-17T00:16:08.234Z,86.14
2018-07-17T00:17:08.336Z,85.85
2018-07-17T00:18:08.434Z,86.24
2018-07-17T00:19:08.532Z,86.38
2018-07-17T00:20:08.635Z,86.05
2018-07-17T00:21:08.735Z,86.24
2018-07-17T00:22:08.843Z,86.24
2018-07-17T00:23:08.941Z,86.14
2018-07-17T00:24:09.035Z,86.38
2018-07-17T00:25:09.135Z,86.58
2018-07-17T00:26:09.235Z,86.38
2018-07-17T00:27:09.336Z,86.48
2018-07-17T00:28:09.432Z,86.10
2018-07-17T00:29:09.532Z,86.38
2018-07-17T00:30:09.628Z,85.91
2018-07-17T00:31:09.730Z,85.81
2018-07-17T00:32:09.825Z,85.81
2018-07-17T00:33:09.924Z,85.91
2018-07-17T00:34:10.025Z,85.62
2018-07-17T00:35:10.123Z,85.42
2018-07-17T00:36:10.222Z,85.62
2018-07-17T00:37:10.325Z,85.62
2018-07-17T00:38:10.417Z,85.42
2018-07-17T00:39:10.515Z,85.62
2018-07-17T00:40:10.612Z,86.00
2018-07-17T00:41:10.711Z,85.91
2018-07-17T00:42:10.812Z,86.48
2018-07-17T00:43:10.908Z,86.19
2018-07-17T00:44:11.005Z,85.81
2018-07-17T00:45:11.105Z,86.38
2018-07-17T00:46:11.207Z,86.38
2018-07-17T00:47:11.305Z,86.38
2018-07-17T00:48:11.405Z,86.87
2018-07-17T00:49:11.502Z,86.77
2018-07-17T00:50:11.605Z,86.38
2018-07-17T00:51:11.704Z,86.15
2018-07-17T00:52:11.796Z,86.54
2018-07-17T00:53:11.895Z,86.68
2018-07-17T00:54:11.996Z,86.25
2018-07-17T00:55:12.091Z,87.44
2018-07-17T00:56:12.193Z,87.05
2018-07-17T00:57:12.292Z,87.01
2018-07-17T00:58:12.392Z,86.77
2018-07-17T00:59:12.488Z,87.01
2018-07-17T01:00:12.590Z,86.82
2018-07-17T01:01:12.720Z,86.77
2018-07-17T01:02:12.785Z,86.82
2018-07-17T01:03:12.881Z,86.82
2018-07-17T01:04:12.984Z,86.82
2018-07-17T01:05:13.081Z,86.72
2018-07-17T01:06:13.183Z,87.01
2018-07-17T01:07:13.287Z,86.92
2018-07-17T01:08:13.384Z,86.54
2018-07-17T01:09:13.483Z,86.63
2018-07-17T01:10:13.590Z,86.34
2018-07-17T01:11:13.685Z,86.63
2018-07-17T01:12:13.792Z,86.15
2018-07-17T01:13:13.893Z,86.25
2018-07-17T01:14:13.994Z,86.34
2018-07-17T01:15:14.072Z,86.34
2018-07-17T01:16:14.169Z,86.05
2018-07-17T01:17:14.275Z,86.54
2018-07-17T01:18:14.361Z,86.15
2018-07-17T01:19:14.448Z,86.54
2018-07-17T01:20:14.535Z,86.34
2018-07-17T01:21:14.634Z,86.15
2018-07-17T01:22:14.742Z,86.44
2018-07-17T01:23:14.854Z,86.54
2018-07-17T01:24:14.935Z,86.44
2018-07-17T01:25:15.044Z,87.01
2018-07-17T01:26:15.143Z,86.82
2018-07-17T01:27:15.239Z,86.54
2018-07-17T01:28:15.337Z,86.92
2018-07-17T01:29:15.436Z,86.15
2018-07-17T01:30:15.560Z,85.96
2018-07-17T01:31:15.655Z,87.21
2018-07-17T01:32:15.775Z,86.44
2018-07-17T01:33:15.865Z,86.49
2018-07-17T01:34:15.997Z,86.92
2018-07-17T01:35:16.047Z,86.88
2018-07-17T01:36:16.138Z,86.82
2018-07-17T01:37:16.256Z,86.11
2018-07-17T01:38:16.367Z,86.78
2018-07-17T01:39:16.441Z,86.88
2018-07-17T01:40:16.561Z,86.82
2018-07-17T01:41:16.646Z,86.54
2018-07-17T01:42:16.743Z,86.58
2018-07-17T01:43:16.853Z,86.30
2018-07-17T01:44:16.962Z,86.21
2018-07-17T01:45:17.056Z,86.30
2018-07-17T01:46:17.151Z,86.30
2018-07-17T01:47:17.254Z,86.58
2018-07-17T01:48:17.357Z,86.68
2018-07-17T01:49:17.449Z,86.97
2018-07-17T01:50:17.548Z,86.68
2018-07-17T01:51:17.656Z,86.01
2018-07-17T01:52:17.747Z,86.78
2018-07-17T01:53:17.849Z,86.78
2018-07-17T01:54:17.929Z,86.40
2018-07-17T01:55:18.029Z,86.78
2018-07-17T01:56:18.129Z,86.01
2018-07-17T01:57:18.217Z,86.11
2018-07-17T01:58:18.337Z,86.11
2018-07-17T01:59:18.433Z,86.21
2018-07-17T02:00:18.522Z,86.49
2018-07-17T02:01:18.617Z,86.30
2018-07-17T02:02:18.712Z,86.68
2018-07-17T02:03:18.813Z,87.07
2018-07-17T02:04:18.915Z,86.88
2018-07-17T02:05:19.018Z,86.68
2018-07-17T02:06:19.114Z,86.78
2018-07-17T02:07:19.209Z,86.78
2018-07-17T02:08:19.308Z,86.78
2018-07-17T02:09:19.400Z,87.16
2018-07-17T02:10:19.510Z,87.35
2018-07-17T02:11:19.612Z,87.26
2018-07-17T02:12:19.706Z,87.35
2018-07-17T02:13:19.803Z,87.07
2018-07-17T02:14:19.910Z,86.68
2018-07-17T02:15:20.028Z,86.58
2018-07-17T02:16:20.126Z,86.88
2018-07-17T02:17:20.239Z,86.78
2018-07-17T02:18:20.330Z,86.78
2018-07-17T02:19:20.431Z,86.49
2018-07-17T02:20:20.517Z,86.78
2018-07-17T02:21:20.619Z,86.68
2018-07-17T02:22:20.710Z,86.58
2018-07-17T02:23:20.813Z,86.01
2018-07-17T02:24:20.912Z,86.58
2018-07-17T02:25:21.012Z,86.21
2018-07-17T02:26:21.115Z,85.68
2018-07-17T02:27:21.206Z,86.78
2018-07-17T02:28:21.292Z,86.88
2018-07-17T02:29:21.403Z,86.83
2018-07-17T02:30:21.506Z,86.07
2018-07-17T02:31:21.606Z,86.93
2018-07-17T02:32:21.700Z,87.21
2018-07-17T02:33:21.800Z,86.16
2018-07-17T02:34:21.887Z,86.74
2018-07-17T02:35:21.992Z,86.54
2018-07-17T02:36:22.090Z,86.83
2018-07-17T02:37:22.189Z,86.74
2018-07-17T02:38:22.297Z,87.31
2018-07-17T02:39:22.385Z,86.64
2018-07-17T02:40:22.482Z,87.21
2018-07-17T02:41:22.583Z,87.12
2018-07-17T02:42:22.752Z,87.60
2018-07-17T02:43:22.769Z,88.08
2018-07-17T02:44:22.863Z,88.80
2018-07-17T02:45:22.966Z,90.05
2018-07-17T02:46:23.074Z,89.95
2018-07-17T02:47:23.174Z,89.57
2018-07-17T02:48:23.272Z,90.33
2018-07-17T02:49:23.359Z,90.33
2018-07-17T02:50:23.461Z,90.05
2018-07-17T02:51:23.545Z,89.86
2018-07-17T02:52:23.634Z,89.95
2018-07-17T02:53:23.742Z,90.05
2018-07-17T02:54:23.840Z,90.14
2018-07-17T02:55:23.931Z,90.05
2018-07-17T02:56:24.047Z,89.47
2018-07-17T02:57:24.144Z,89.47
2018-07-17T02:58:24.240Z,89.66
2018-07-17T02:59:24.332Z,88.90
2018-07-17T03:00:24.429Z,89.28
2018-07-17T03:01:24.522Z,89.47
2018-07-17T03:02:24.619Z,89.47
2018-07-17T03:03:24.709Z,89.66
2018-07-17T03:04:24.810Z,90.05
2018-07-17T03:05:24.932Z,90.05
2018-07-17T03:06:25.009Z,89.95
2018-07-17T03:07:25.106Z,89.76
2018-07-17T03:08:25.205Z,90.05
2018-07-17T03:09:25.304Z,90.14
2018-07-17T03:10:25.410Z,90.05
2018-07-17T03:11:25.510Z,90.23
2018-07-17T03:12:25.598Z,89.66
2018-07-17T03:13:25.694Z,90.23
2018-07-17T03:14:25.794Z,90.53
2018-07-17T03:15:25.889Z,90.58
2018-07-17T03:16:25.984Z,91.34
2018-07-17T03:17:26.091Z,92.01
2018-07-17T03:18:26.193Z,92.40
2018-07-17T03:19:26.291Z,92.30
2018-07-17T03:20:26.389Z,92.21
2018-07-17T03:21:26.482Z,92.11
2018-07-17T03:22:26.583Z,91.92
2018-07-17T03:23:26.691Z,91.92
2018-07-17T03:24:26.795Z,91.25
2018-07-17T03:25:26.869Z,91.15
2018-07-17T03:26:26.970Z,90.48
2018-07-17T03:27:27.067Z,91.10
2018-07-17T03:28:27.164Z,90.53
2018-07-17T03:29:27.261Z,89.86
2018-07-17T03:30:27.356Z,89.86
2018-07-17T03:31:27.459Z,90.05
2018-07-17T03:32:27.559Z,90.23
2018-07-17T03:33:27.655Z,89.37
2018-07-17T03:34:27.755Z,89.28
2018-07-17T03:35:27.859Z,89.47
2018-07-17T03:36:27.987Z,89.57
2018-07-17T03:37:28.050Z,90.23
2018-07-17T03:38:28.148Z,90.23
2018-07-17T03:39:28.247Z,90.05
2018-07-17T03:40:28.343Z,89.47
2018-07-17T03:41:28.442Z,89.47
2018-07-17T03:42:28.544Z,89.57
2018-07-17T03:43:28.637Z,88.90
2018-07-17T03:44:28.735Z,89.47
2018-07-17T03:45:28.836Z,89.18
2018-07-17T03:46:28.931Z,88.70
2018-07-17T03:47:29.029Z,88.70
2018-07-17T03:48:29.128Z,88.42
2018-07-17T03:49:29.228Z,88.32
2018-07-17T03:50:29.323Z,88.70
2018-07-17T03:51:29.423Z,88.32
2018-07-17T03:52:29.519Z,88.13
2018-07-17T03:53:29.615Z,88.03
2018-07-17T03:54:29.713Z,87.94
2018-07-17T03:55:29.798Z,87.46
2018-07-17T03:56:29.901Z,87.84
2018-07-17T03:57:29.997Z,87.79
2018-07-17T03:58:30.097Z,87.46
2018-07-17T03:59:30.205Z,87.55
2018-07-17T04:00:30.295Z,87.46
2018-07-17T04:01:30.391Z,87.46
2018-07-17T04:02:30.489Z,87.65
2018-07-17T04:03:30.587Z,87.55
2018-07-17T04:04:30.687Z,87.79
2018-07-17T04:05:30.784Z,87.37
2018-07-17T04:06:30.882Z,87.37
2018-07-17T04:07:30.979Z,87.12
2018-07-17T04:08:31.091Z,86.83
2018-07-17T04:09:31.191Z,86.64
2018-07-17T04:10:31.290Z,86.83
2018-07-17T04:11:31.391Z,86.64
2018-07-17T04:12:31.480Z,86.50
2018-07-17T04:13:31.673Z,87.02
2018-07-17T04:14:31.677Z,86.88
2018-07-17T04:15:31.778Z,87.17
2018-07-17T04:16:31.878Z,86.88
2018-07-17T04:17:31.975Z,86.64
2018-07-17T04:18:32.075Z,86.93
2018-07-17T04:19:32.178Z,86.07
2018-07-17T04:20:32.302Z,86.35
2018-07-17T04:21:32.403Z,86.35
2018-07-17T04:22:32.510Z,86.93
2018-07-17T04:23:32.608Z,86.50
2018-07-17T04:24:32.707Z,86.64
2018-07-17T04:25:32.805Z,86.83
2018-07-17T04:26:32.906Z,86.74
2018-07-17T04:27:33.006Z,86.93
2018-07-17T04:28:33.102Z,86.83
2018-07-17T04:29:33.224Z,86.64
2018-07-17T04:30:33.325Z,86.74
2018-07-17T04:31:33.433Z,87.02
2018-07-17T04:32:33.522Z,87.02
2018-07-17T04:33:33.628Z,86.83
2018-07-17T04:34:33.720Z,86.93
2018-07-17T04:35:33.828Z,86.45
2018-07-17T04:36:33.933Z,86.83
2018-07-17T04:37:34.035Z,86.35
2018-07-17T04:38:34.135Z,86.54
2018-07-17T04:39:34.230Z,86.93
2018-07-17T04:40:34.328Z,86.64
2018-07-17T04:41:34.427Z,86.74
2018-07-17T04:42:34.530Z,86.74
2018-07-17T04:43:34.652Z,86.45
2018-07-17T04:44:34.744Z,86.93
2018-07-17T04:45:34.850Z,86.35
2018-07-17T04:46:34.946Z,86.83
2018-07-17T04:47:35.046Z,86.25
2018-07-17T04:48:35.144Z,86.16
2018-07-17T04:49:35.246Z,86.93
2018-07-17T04:50:35.351Z,85.97
2018-07-17T04:51:35.450Z,86.25
2018-07-17T04:52:35.549Z,86.45
2018-07-17T04:53:35.648Z,86.45
2018-07-17T04:54:35.748Z,87.21
2018-07-17T04:55:35.841Z,85.97
2018-07-17T04:56:35.942Z,86.01
2018-07-17T04:57:36.039Z,86.74
2018-07-17T04:58:36.140Z,86.58
2018-07-17T04:59:36.240Z,86.54
2018-07-17T05:00:36.340Z,86.83
2018-07-17T05:01:36.493Z,86.58
2018-07-17T05:02:36.530Z,86.78
2018-07-17T05:03:36.633Z,86.88
2018-07-17T05:04:36.720Z,87.35
2018-07-17T05:05:36.819Z,86.97
2018-07-17T05:06:36.920Z,86.78
2018-07-17T05:07:37.021Z,86.30
2018-07-17T05:08:37.120Z,86.97
2018-07-17T05:09:37.218Z,86.68
2018-07-17T05:10:37.317Z,86.88
2018-07-17T05:11:37.414Z,86.68
2018-07-17T05:12:37.517Z,86.78
2018-07-17T05:13:37.609Z,86.72
2018-07-17T05:14:37.711Z,86.92
2018-07-17T05:15:37.809Z,86.72
2018-07-17T05:16:37.906Z,86.63
2018-07-17T05:17:38.018Z,86.63
2018-07-17T05:18:38.122Z,87.01
2018-07-17T05:19:38.219Z,86.54
2018-07-17T05:20:38.327Z,86.92
2018-07-17T05:21:38.419Z,87.30
2018-07-17T05:22:38.518Z,86.54
2018-07-17T05:23:38.616Z,86.10
2018-07-17T05:24:38.730Z,86.87
2018-07-17T05:25:38.834Z,86.58
2018-07-17T05:26:38.938Z,86.00
2018-07-17T05:27:39.036Z,85.91
2018-07-17T05:28:39.134Z,86.19
2018-07-17T05:29:39.232Z,86.58
2018-07-17T05:30:39.333Z,86.00
2018-07-17T05:31:39.435Z,85.91
2018-07-17T05:32:39.536Z,85.57
2018-07-17T05:33:39.654Z,84.07
2018-07-17T05:34:39.738Z,82.48
2018-07-17T05:35:39.838Z,81.61
2018-07-17T05:36:39.941Z,80.60
2018-07-17T05:37:40.041Z,79.10
2018-07-17T05:38:40.151Z,77.40
2018-07-17T05:39:40.256Z,76.09
2018-07-17T05:40:40.351Z,74.68
2018-07-17T05:41:40.452Z,72.89
2018-07-17T05:42:40.555Z,71.86
2018-07-17T05:43:40.661Z,70.64
2018-07-17T05:44:40.762Z,70.16
2018-07-17T05:45:40.868Z,69.04
2018-07-17T05:46:40.973Z,67.82
2018-07-17T05:47:41.074Z,66.75
2018-07-17T05:48:41.176Z,66.01
2018-07-17T05:49:41.279Z,64.31
2018-07-17T05:50:41.384Z,63.85
2018-07-17T05:51:41.487Z,62.53
2018-07-17T05:52:41.593Z,61.88
2018-07-17T05:53:41.692Z,60.62
2018-07-17T05:54:41.805Z,60.43
2018-07-17T05:55:41.913Z,60.17
2018-07-17T05:56:42.015Z,58.74
2018-07-17T05:57:42.125Z,58.26
2018-07-17T05:58:42.227Z,57.78
2018-07-17T05:59:42.332Z,57.51
2018-07-17T06:00:42.426Z,57.22
2018-07-17T06:01:42.540Z,57.06
2018-07-17T06:02:42.648Z,56.37
2018-07-17T06:03:42.755Z,56.21
2018-07-17T06:04:42.855Z,56.30
2018-07-17T06:05:42.961Z,56.11
2018-07-17T06:06:43.071Z,56.11
2018-07-17T06:07:43.177Z,55.53
2018-07-17T06:08:43.288Z,55.43
2018-07-17T06:09:43.394Z,55.43
2018-07-17T06:10:43.501Z,55.14
2018-07-17T06:11:43.610Z,55.04
2018-07-17T06:12:43.741Z,55.33
2018-07-17T06:13:43.845Z,54.85
2018-07-17T06:14:43.982Z,55.04
2018-07-17T06:15:44.088Z,54.94
2018-07-17T06:16:44.217Z,54.85
2018-07-17T06:17:44.335Z,55.14
2018-07-17T06:18:44.462Z,55.04
2018-07-17T06:19:44.581Z,54.94
2018-07-17T06:20:44.692Z,54.85
2018-07-17T06:21:44.817Z,54.56
2018-07-17T06:22:44.914Z,54.75
2018-07-17T06:23:45.024Z,54.94
2018-07-17T06:24:45.131Z,55.14
2018-07-17T06:25:45.238Z,55.14
2018-07-17T06:26:45.382Z,55.04
2018-07-17T06:27:45.496Z,55.02
2018-07-17T06:28:45.670Z,55.79
2018-07-17T06:29:45.779Z,56.09
2018-07-17T06:30:45.888Z,56.35
2018-07-17T06:31:45.984Z,57.03
2018-07-17T06:32:46.099Z,56.81
2018-07-17T06:33:46.319Z,57.00
2018-07-17T06:34:46.420Z,57.29
2018-07-17T06:35:46.406Z,57.75
2018-07-17T06:36:46.533Z,58.23
2018-07-17T06:37:46.635Z,58.81
2018-07-17T06:38:46.812Z,58.78
2018-07-17T06:39:46.922Z,59.27
2018-07-17T06:40:47.037Z,59.17
2018-07-17T06:41:47.128Z,58.78
2018-07-17T06:42:47.297Z,59.17
2018-07-17T06:43:47.299Z,59.07
2018-07-17T06:44:47.410Z,59.07
2018-07-17T06:45:47.564Z,59.46
2018-07-17T06:46:47.717Z,59.27
2018-07-17T06:47:47.812Z,59.94
2018-07-17T06:48:47.911Z,59.46
2018-07-17T06:49:48.008Z,59.63
2018-07-17T06:50:48.171Z,59.82
2018-07-17T06:51:48.222Z,59.72
2018-07-17T06:52:48.340Z,59.63
2018-07-17T06:53:48.467Z,60.30
2018-07-17T06:54:48.639Z,61.15
2018-07-17T06:55:48.717Z,61.24
2018-07-17T06:56:48.687Z,61.92
2018-07-17T06:57:48.838Z,61.82
2018-07-17T06:58:48.928Z,62.01
2018-07-17T06:59:49.035Z,62.59
2018-07-17T07:00:49.142Z,62.01
2018-07-17T07:01:49.268Z,62.30
2018-07-17T07:02:49.371Z,62.30
2018-07-17T07:03:49.589Z,62.40
2018-07-17T07:04:49.602Z,62.50
2018-07-17T07:05:49.744Z,62.79
2018-07-17T07:06:49.931Z,62.69
2018-07-17T07:07:49.930Z,62.98
2018-07-17T07:08:50.042Z,63.24
2018-07-17T07:09:50.155Z,63.53
2018-07-17T07:10:50.263Z,63.92
2018-07-17T07:11:50.368Z,63.08
2018-07-17T07:12:50.475Z,63.14
2018-07-17T07:13:50.588Z,62.66
2018-07-17T07:14:50.685Z,62.85
2018-07-17T07:15:50.800Z,62.95
2018-07-17T07:16:50.914Z,63.14
2018-07-17T07:17:51.051Z,63.24
2018-07-17T07:18:51.144Z,63.53
2018-07-17T07:19:51.250Z,62.76
2018-07-17T07:20:51.378Z,62.56
2018-07-17T07:21:51.502Z,62.69
2018-07-17T07:22:51.630Z,62.30
2018-07-17T07:23:51.738Z,62.21
2018-07-17T07:24:51.858Z,62.69
2018-07-17T07:25:51.955Z,62.79
2018-07-17T07:26:52.058Z,62.11
2018-07-17T07:27:52.166Z,61.63
2018-07-17T07:28:52.276Z,61.92
2018-07-17T07:29:52.406Z,61.43
2018-07-17T07:30:52.515Z,61.27
2018-07-17T07:31:52.609Z,61.15
2018-07-17T07:32:52.709Z,61.18
2018-07-17T07:33:52.812Z,61.18
2018-07-17T07:34:52.911Z,61.27
2018-07-17T07:35:53.037Z,60.95
2018-07-17T07:36:53.131Z,61.92
2018-07-17T07:37:53.270Z,61.33
2018-07-17T07:38:53.368Z,61.05
2018-07-17T07:39:53.477Z,60.98
2018-07-17T07:40:53.580Z,60.88
2018-07-17T07:41:53.685Z,61.08
2018-07-17T07:42:53.815Z,60.01
2018-07-17T07:43:53.909Z,60.30
2018-07-17T07:44:54.015Z,60.04
2018-07-17T07:45:54.133Z,60.04
2018-07-17T07:46:54.240Z,60.62
2018-07-17T07:47:54.357Z,60.04
2018-07-17T07:48:54.462Z,59.94
2018-07-17T07:49:54.583Z,59.84
2018-07-17T07:50:54.679Z,60.07
2018-07-17T07:51:54.785Z,60.65
2018-07-17T07:52:54.891Z,59.39
2018-07-17T07:53:54.987Z,59.00
2018-07-17T07:54:55.095Z,59.30
2018-07-17T07:55:55.186Z,59.30
2018-07-17T07:56:55.667Z,59.39
2018-07-17T07:57:55.402Z,58.91
2018-07-17T07:58:55.497Z,58.16
2018-07-17T07:59:55.634Z,58.33
2018-07-17T08:00:55.745Z,58.52
2018-07-17T08:01:55.839Z,58.55
2018-07-17T08:02:55.945Z,58.65
2018-07-17T08:03:56.158Z,58.36
2018-07-17T08:04:56.215Z,58.45
2018-07-17T08:05:56.296Z,57.80
2018-07-17T08:06:56.401Z,57.42
2018-07-17T08:07:56.512Z,57.61
2018-07-17T08:08:56.618Z,57.51
2018-07-17T08:09:56.725Z,57.12
2018-07-17T08:10:56.821Z,56.74
2018-07-17T08:11:56.992Z,56.93
2018-07-17T08:12:57.069Z,56.57
2018-07-17T08:13:57.174Z,56.09
2018-07-17T08:14:57.289Z,56.47
2018-07-17T08:15:57.391Z,56.28
2018-07-17T08:16:57.524Z,56.18
2018-07-17T08:17:57.634Z,55.82
2018-07-17T08:18:57.739Z,56.21
2018-07-17T08:19:57.843Z,56.11
2018-07-17T08:20:57.935Z,55.14
2018-07-17T08:21:58.031Z,55.33
2018-07-17T08:22:58.135Z,54.88
2018-07-17T08:23:58.239Z,54.88
2018-07-17T08:24:58.349Z,54.20
2018-07-17T08:25:58.458Z,55.17
2018-07-17T08:26:58.570Z,54.49
2018-07-17T08:27:58.678Z,54.10
2018-07-17T08:28:58.799Z,53.64
2018-07-17T08:29:58.905Z,53.93
2018-07-17T08:30:59.000Z,53.64
2018-07-17T08:31:59.102Z,53.16
2018-07-17T08:32:59.207Z,52.96
2018-07-17T08:33:59.312Z,53.18
2018-07-17T08:34:59.416Z,52.79
2018-07-17T08:35:59.519Z,51.62
2018-07-17T08:36:59.617Z,51.23
2018-07-17T08:37:59.722Z,51.33
2018-07-17T08:38:59.827Z,51.43
2018-07-17T08:39:59.936Z,51.94
2018-07-17T08:41:00.043Z,51.94
2018-07-17T08:42:00.146Z,51.75
2018-07-17T08:43:00.251Z,50.78
2018-07-17T08:44:00.354Z,50.02
2018-07-17T08:45:00.454Z,49.92
2018-07-17T08:46:00.555Z,50.21
2018-07-17T08:47:00.670Z,50.12
2018-07-17T08:48:00.780Z,49.54
2018-07-17T08:49:00.931Z,50.12
2018-07-17T08:50:01.020Z,50.04
2018-07-17T08:51:01.134Z,50.31
2018-07-17T08:52:01.240Z,49.27
2018-07-17T08:53:01.346Z,49.27
2018-07-17T08:54:01.466Z,49.07
2018-07-17T08:55:01.547Z,50.24
2018-07-17T08:56:01.644Z,48.68
2018-07-17T08:57:01.773Z,48.29
2018-07-17T08:58:01.888Z,48.97
2018-07-17T08:59:01.999Z,50.07
2018-07-17T09:00:02.095Z,48.71
2018-07-17T09:01:02.201Z,48.12
2018-07-17T09:02:02.308Z,47.34
2018-07-17T09:03:02.413Z,46.93
2018-07-17T09:04:02.517Z,47.32
2018-07-17T09:05:02.625Z,47.42
2018-07-17T09:06:02.803Z,47.52
2018-07-17T09:07:02.836Z,47.32
2018-07-17T09:08:02.941Z,47.32
2018-07-17T09:09:03.051Z,47.15
2018-07-17T09:10:03.162Z,46.95
2018-07-17T09:11:03.268Z,46.95
2018-07-17T09:12:03.377Z,46.76
2018-07-17T09:13:03.495Z,45.78
2018-07-17T09:14:03.592Z,46.00
2018-07-17T09:15:03.699Z,45.71
2018-07-17T09:16:03.812Z,45.42
2018-07-17T09:17:03.918Z,45.22
2018-07-17T09:18:04.025Z,45.22
2018-07-17T09:19:04.130Z,44.83
2018-07-17T09:20:04.238Z,44.64
2018-07-17T09:21:04.344Z,44.46
2018-07-17T09:22:04.452Z,44.24
2018-07-17T09:23:04.562Z,42.30
2018-07-17T09:24:04.669Z,39.96
2018-07-17T09:25:04.778Z,38.49
2018-07-17T09:26:04.886Z,38.28
2018-07-17T09:27:04.989Z,37.70
2018-07-17T09:28:05.116Z,37.31
2018-07-17T09:29:05.215Z,37.70
2018-07-17T09:30:05.331Z,37.43
2018-07-17T09:31:05.432Z,37.13
2018-07-17T09:32:05.541Z,36.94
2018-07-17T09:33:05.648Z,36.47
2018-07-17T09:34:05.759Z,37.52
2018-07-17T09:35:05.871Z,38.28
2018-07-17T09:36:05.980Z,38.18
2018-07-17T09:37:06.086Z,38.18
2018-07-17T09:38:06.196Z,38.18
2018-07-17T09:39:06.325Z,38.18
2018-07-17T09:40:06.416Z,37.60
2018-07-17T09:41:06.519Z,37.89
2018-07-17T09:42:06.627Z,38.01
2018-07-17T09:43:06.740Z,38.30
2018-07-17T09:44:06.843Z,36.55
2018-07-17T09:45:06.954Z,36.94
2018-07-17T09:46:07.061Z,36.25
2018-07-17T09:47:07.174Z,36.86
2018-07-17T09:48:07.285Z,37.83
2018-07-17T09:49:07.387Z,37.35
2018-07-17T09:50:07.499Z,35.59
2018-07-17T09:51:07.606Z,33.93
2018-07-17T09:52:07.709Z,34.12
2018-07-17T09:53:07.822Z,33.83
2018-07-17T09:54:07.930Z,34.24
2018-07-17T09:55:08.056Z,33.75
2018-07-17T09:56:08.171Z,33.07
2018-07-17T09:57:08.280Z,32.19
2018-07-17T09:58:08.389Z,32.50
2018-07-17T09:59:08.500Z,32.31
2018-07-17T10:00:08.628Z,31.82
2018-07-17T10:01:08.713Z,31.84
2018-07-17T10:02:08.820Z,32.60
2018-07-17T10:03:08.928Z,32.70
2018-07-17T10:04:09.036Z,33.01
2018-07-17T10:05:09.145Z,33.40
2018-07-17T10:06:09.270Z,32.32
2018-07-17T10:07:09.379Z,32.13
2018-07-17T10:08:09.486Z,32.42
2018-07-17T10:09:09.598Z,31.23
2018-07-17T10:10:09.713Z,30.55
2018-07-17T10:11:09.817Z,31.12
2018-07-17T10:12:09.927Z,30.94
2018-07-17T10:13:10.037Z,30.65
2018-07-17T10:14:10.143Z,30.65
2018-07-17T10:15:10.276Z,29.08
2018-07-17T10:16:10.389Z,28.99
2018-07-17T10:17:10.487Z,29.47
2018-07-17T10:18:10.600Z,29.96
2018-07-17T10:19:10.701Z,29.08
2018-07-17T10:20:10.805Z,29.38
2018-07-17T10:21:10.909Z,28.30
2018-07-17T10:22:11.043Z,29.08
2018-07-17T10:23:11.119Z,29.38
2018-07-17T10:24:11.228Z,29.08
2018-07-17T10:25:11.346Z,29.10
2018-07-17T10:26:11.471Z,29.30
2018-07-17T10:27:11.575Z,28.52
2018-07-17T10:28:11.684Z,29.00
2018-07-17T10:29:11.808Z,29.00
2018-07-17T10:30:11.913Z,28.42
2018-07-17T10:31:12.018Z,27.93
2018-07-17T10:32:12.206Z,28.13
2018-07-17T10:33:12.241Z,26.95
2018-07-17T10:34:12.358Z,25.68
2018-07-17T10:35:12.457Z,26.56
2018-07-17T10:36:12.563Z,25.88
2018-07-17T10:37:12.668Z,26.77
2018-07-17T10:38:12.796Z,26.57
2018-07-17T10:39:12.896Z,26.28
2018-07-17T10:40:12.999Z,25.89
2018-07-17T10:41:13.117Z,26.18
2018-07-17T10:42:13.235Z,26.59
2018-07-17T10:43:13.347Z,26.78
2018-07-17T10:44:13.454Z,26.49
2018-07-17T10:45:13.559Z,25.61
2018-07-17T10:46:13.667Z,26.49
2018-07-17T10:47:13.773Z,26.98
2018-07-17T10:48:13.884Z,26.49
2018-07-17T10:49:13.986Z,26.67
2018-07-17T10:50:14.101Z,26.37
2018-07-17T10:51:14.251Z,27.33
2018-07-17T10:52:14.391Z,27.72
2018-07-17T10:53:14.497Z,28.03
2018-07-17T10:54:14.628Z,27.93
2018-07-17T10:55:14.744Z,27.26
2018-07-17T10:56:14.882Z,25.21
2018-07-17T10:57:14.897Z,23.85
2018-07-17T10:58:15.037Z,23.65
2018-07-17T10:59:15.096Z,24.43
2018-07-17T11:00:15.216Z,25.12
2018-07-17T11:01:15.320Z,25.72
2018-07-17T11:02:15.422Z,25.24
2018-07-17T11:03:15.528Z,24.55
2018-07-17T11:04:15.626Z,24.07
2018-07-17T11:05:15.738Z,25.24
2018-07-17T11:06:15.840Z,24.26
2018-07-17T11:07:15.941Z,24.35
2018-07-17T11:08:16.059Z,24.44
2018-07-17T11:09:16.326Z,24.35
2018-07-17T11:10:16.326Z,24.15
2018-07-17T11:11:16.437Z,24.63
2018-07-17T11:12:16.545Z,24.92
2018-07-17T11:13:16.661Z,25.51
2018-07-17T11:14:16.804Z,25.02
2018-07-17T11:15:16.906Z,25.90
2018-07-17T11:16:17.015Z,24.53
2018-07-17T11:17:17.124Z,24.53
2018-07-17T11:18:17.253Z,24.33
2018-07-17T11:19:17.363Z,24.91
2018-07-17T11:20:17.460Z,25.01
2018-07-17T11:21:17.565Z,24.71
2018-07-17T11:22:17.670Z,25.90
2018-07-17T11:23:17.777Z,25.90
2018-07-17T11:24:17.877Z,26.49
2018-07-17T11:25:17.976Z,26.60
2018-07-17T11:26:18.102Z,26.60
2018-07-17T11:27:18.256Z,26.01
2018-07-17T11:28:18.372Z,26.67
2018-07-17T11:29:18.491Z,27.36
2018-07-17T11:30:18.603Z,26.88
2018-07-17T11:31:18.729Z,26.59
2018-07-17T11:32:18.833Z,26.59
2018-07-17T11:33:18.933Z,27.27
2018-07-17T11:34:19.053Z,27.19
2018-07-17T11:35:19.146Z,27.19
2018-07-17T11:36:19.247Z,26.60
2018-07-17T11:37:19.342Z,27.48
2018-07-17T11:38:19.489Z,26.60
2018-07-17T11:39:19.589Z,26.60
2018-07-17T11:40:19.732Z,26.79
2018-07-17T11:41:19.894Z,26.70
2018-07-17T11:42:20.004Z,27.28
2018-07-17T11:43:20.116Z,27.59
2018-07-17T11:44:20.223Z,27.48
2018-07-17T11:45:20.334Z,27.87
2018-07-17T11:46:20.435Z,27.97
2018-07-17T11:47:20.571Z,27.87
2018-07-17T11:48:20.681Z,27.77
2018-07-17T11:49:20.822Z,28.25
2018-07-17T11:50:20.944Z,28.33
2018-07-17T11:51:21.049Z,28.72
2018-07-17T11:52:21.147Z,29.50
2018-07-17T11:53:21.261Z,28.93
2018-07-17T11:54:21.347Z,27.84
2018-07-17T11:55:21.471Z,28.63
2018-07-17T11:56:21.582Z,28.52
2018-07-17T11:57:21.699Z,28.89
2018-07-17T11:58:21.809Z,29.56
2018-07-17T11:59:22.018Z,29.38
2018-07-17T12:00:22.021Z,29.30
2018-07-17T12:01:22.124Z,29.10
2018-07-17T12:02:22.226Z,29.21
2018-07-17T12:03:22.345Z,29.03
2018-07-17T12:04:22.445Z,28.55
2018-07-17T12:05:22.568Z,28.96
2018-07-17T12:06:22.657Z,28.86
2018-07-17T12:07:22.764Z,27.87
2018-07-17T12:08:22.880Z,27.38
2018-07-17T12:09:22.992Z,27.10
2018-07-17T12:10:23.106Z,26.81
2018-07-17T12:11:23.210Z,26.92
2018-07-17T12:12:23.313Z,26.42
2018-07-17T12:13:23.428Z,27.88
2018-07-17T12:14:23.548Z,27.69
2018-07-17T12:15:23.656Z,27.49
2018-07-17T12:16:23.765Z,26.82
2018-07-17T12:17:23.881Z,26.64
2018-07-17T12:18:24.009Z,26.04
2018-07-17T12:19:24.119Z,26.54
2018-07-17T12:20:24.323Z,25.27
2018-07-17T12:21:24.326Z,25.93
2018-07-17T12:22:24.463Z,26.61
2018-07-17T12:23:24.566Z,26.32
2018-07-17T12:24:24.667Z,26.53
2018-07-17T12:25:24.781Z,26.53
2018-07-17T12:26:24.879Z,26.82
2018-07-17T12:27:24.979Z,26.43
2018-07-17T12:28:25.089Z,25.84
2018-07-17T12:29:25.210Z,26.70
2018-07-17T12:30:25.332Z,27.28
2018-07-17T12:31:25.421Z,26.49
2018-07-17T12:32:25.523Z,27.36
2018-07-17T12:33:25.636Z,27.25
2018-07-17T12:34:25.742Z,27.73
2018-07-17T12:35:25.850Z,27.83
2018-07-17T12:36:25.963Z,27.93
2018-07-17T12:37:26.074Z,28.22
2018-07-17T12:38:26.176Z,27.84
2018-07-17T12:39:26.281Z,27.94
2018-07-17T12:40:26.378Z,28.05
2018-07-17T12:41:26.477Z,28.06
2018-07-17T12:42:26.576Z,28.06
2018-07-17T12:43:26.692Z,27.48
2018-07-17T12:44:26.962Z,26.32
2018-07-17T12:45:26.916Z,25.93
2018-07-17T12:46:27.023Z,26.03
2018-07-17T12:47:27.134Z,25.84
2018-07-17T12:48:27.263Z,25.24
2018-07-17T12:49:27.376Z,25.72
2018-07-17T12:50:27.501Z,26.03
2018-07-17T12:51:27.673Z,26.33
2018-07-17T12:52:27.773Z,25.74
2018-07-17T12:53:27.875Z,26.40